NSZ60X EGKK-ESSA
Flight info
| Callsign | NSZ60X |
|---|---|
| Flight time | 2h 3m |
| Altitude | 37000 |
| Route | FRANE M604 GIVPO DCT LARGA DCT SOPTO DCT LINVI DCT BINRO DCT GURLI DCT XENTA DCT KORET DCT ELTOK |
| Aircraft | B738/M-SDE2E3GHIJ1LRWXY/LB1 |
Departure
| Time | 2026-05-04 20:08 |
|---|---|
| Airport | London Gatwick Airport (EGKK) |
Arrival
| Time | 2026-05-04 22:11 |
|---|---|
| Airport | Stockholm-Arlanda Airport (ESSA) |
| Time | Latitude | Longitude | Altitude | Speed | Heading |
|---|---|---|---|---|---|
| 2026-05-04 18:56 | 51.15521 | -0.16655 | 203 ft | 0 kts | 348° |
| 2026-05-04 19:34 | 51.15503 | -0.16649 | 197 ft | 4 kts | 348° |
| 2026-05-04 19:34 | 51.15479 | -0.16641 | 216 ft | 2 kts | 348° |
| 2026-05-04 19:34 | 51.15459 | -0.16630 | 210 ft | 4 kts | 301° |
| 2026-05-04 19:34 | 51.15457 | -0.16596 | 211 ft | 4 kts | 258° |
| 2026-05-04 19:35 | 51.15461 | -0.16572 | 208 ft | 0 kts | 258° |
| 2026-05-04 19:44 | 51.15460 | -0.16573 | 203 ft | 1 kts | 258° |
| 2026-05-04 19:45 | 51.15454 | -0.16622 | 203 ft | 6 kts | 258° |
| 2026-05-04 19:45 | 51.15450 | -0.16651 | 205 ft | 7 kts | 258° |
| 2026-05-04 19:45 | 51.15452 | -0.16783 | 208 ft | 18 kts | 269° |
| 2026-05-04 19:45 | 51.15425 | -0.16997 | 203 ft | 20 kts | 258° |
| 2026-05-04 19:46 | 51.15386 | -0.17198 | 212 ft | 17 kts | 251° |
| 2026-05-04 19:46 | 51.15351 | -0.17345 | 205 ft | 10 kts | 224° |
| 2026-05-04 19:46 | 51.15303 | -0.17419 | 207 ft | 10 kts | 251° |
| 2026-05-04 19:46 | 51.15290 | -0.17524 | 203 ft | 10 kts | 257° |
| 2026-05-04 19:47 | 51.15275 | -0.17634 | 203 ft | 12 kts | 258° |
| 2026-05-04 19:47 | 51.15254 | -0.17787 | 206 ft | 17 kts | 257° |
| 2026-05-04 19:47 | 51.15225 | -0.18001 | 208 ft | 22 kts | 258° |
| 2026-05-04 19:47 | 51.15191 | -0.18241 | 207 ft | 18 kts | 259° |
| 2026-05-04 19:48 | 51.15172 | -0.18433 | 213 ft | 17 kts | 258° |
| 2026-05-04 19:48 | 51.15147 | -0.18615 | 202 ft | 17 kts | 258° |
| 2026-05-04 19:48 | 51.15122 | -0.18791 | 205 ft | 16 kts | 257° |
| 2026-05-04 19:48 | 51.15099 | -0.18960 | 206 ft | 15 kts | 258° |
| 2026-05-04 19:49 | 51.15076 | -0.19122 | 203 ft | 15 kts | 257° |
| 2026-05-04 19:49 | 51.15055 | -0.19276 | 213 ft | 14 kts | 258° |
| 2026-05-04 19:49 | 51.15035 | -0.19424 | 207 ft | 13 kts | 257° |
| 2026-05-04 19:49 | 51.15016 | -0.19564 | 207 ft | 13 kts | 257° |
| 2026-05-04 19:50 | 51.14997 | -0.19702 | 211 ft | 13 kts | 257° |
| 2026-05-04 19:50 | 51.14976 | -0.19854 | 209 ft | 16 kts | 257° |
| 2026-05-04 19:50 | 51.14947 | -0.20064 | 205 ft | 22 kts | 258° |
| 2026-05-04 19:50 | 51.14912 | -0.20318 | 210 ft | 24 kts | 257° |
| 2026-05-04 19:51 | 51.14877 | -0.20567 | 204 ft | 23 kts | 257° |
| 2026-05-04 19:51 | 51.14844 | -0.20809 | 202 ft | 22 kts | 258° |
| 2026-05-04 19:51 | 51.14812 | -0.21042 | 213 ft | 18 kts | 257° |
| 2026-05-04 19:51 | 51.14794 | -0.21148 | 210 ft | 0 kts | 244° |
| 2026-05-04 19:52 | 51.14793 | -0.21150 | 209 ft | 1 kts | 245° |
| 2026-05-04 19:52 | 51.14788 | -0.21170 | 209 ft | 4 kts | 246° |
| 2026-05-04 19:53 | 51.14778 | -0.21222 | 205 ft | 6 kts | 258° |
| 2026-05-04 19:53 | 51.14776 | -0.21235 | 203 ft | 0 kts | 257° |
| 2026-05-04 19:54 | 51.14775 | -0.21241 | 203 ft | 0 kts | 258° |
| 2026-05-04 19:55 | 51.14775 | -0.21245 | 203 ft | 0 kts | 258° |
| 2026-05-04 19:55 | 51.14773 | -0.21258 | 211 ft | 2 kts | 258° |
| 2026-05-04 19:56 | 51.14768 | -0.21294 | 207 ft | 5 kts | 258° |
| 2026-05-04 19:56 | 51.14763 | -0.21334 | 203 ft | 3 kts | 258° |
| 2026-05-04 19:56 | 51.14762 | -0.21340 | 203 ft | 0 kts | 256° |
| 2026-05-04 19:57 | 51.14761 | -0.21344 | 203 ft | 0 kts | 255° |
| 2026-05-04 19:59 | 51.14761 | -0.21345 | 203 ft | 1 kts | 255° |
| 2026-05-04 19:59 | 51.14756 | -0.21367 | 206 ft | 4 kts | 244° |
| 2026-05-04 19:59 | 51.14721 | -0.21403 | 206 ft | 8 kts | 184° |
| 2026-05-04 19:59 | 51.14708 | -0.21400 | 203 ft | 0 kts | 169° |
| 2026-05-04 20:01 | 51.14707 | -0.21400 | 203 ft | 1 kts | 169° |
| 2026-05-04 20:01 | 51.14703 | -0.21398 | 203 ft | 0 kts | 166° |
| 2026-05-04 20:02 | 51.14700 | -0.21397 | 203 ft | 0 kts | 163° |
| 2026-05-04 20:02 | 51.14696 | -0.21395 | 214 ft | 1 kts | 163° |
| 2026-05-04 20:03 | 51.14683 | -0.21383 | 212 ft | 3 kts | 146° |
| 2026-05-04 20:03 | 51.14659 | -0.21354 | 208 ft | 0 kts | 147° |
| 2026-05-04 20:04 | 51.14633 | -0.21335 | 205 ft | 8 kts | 162° |
| 2026-05-04 20:04 | 51.14612 | -0.21326 | 204 ft | 0 kts | 166° |
| 2026-05-04 20:05 | 51.14611 | -0.21325 | 205 ft | 1 kts | 166° |
| 2026-05-04 20:05 | 51.14564 | -0.21294 | 210 ft | 12 kts | 149° |
| 2026-05-04 20:05 | 51.14518 | -0.21192 | 207 ft | 9 kts | 90° |
| 2026-05-04 20:06 | 51.14525 | -0.21132 | 205 ft | 0 kts | 78° |
| 2026-05-04 20:07 | 51.14552 | -0.20935 | 208 ft | 52 kts | 77° |
| 2026-05-04 20:07 | 51.14685 | -0.19980 | 212 ft | 123 kts | 78° |
| 2026-05-04 20:08 | 51.14901 | -0.18375 | 367 ft | 165 kts | 77° |
| 2026-05-04 20:08 | 51.15125 | -0.16553 | 1042 ft | 174 kts | 77° |
| 2026-05-04 20:08 | 51.15360 | -0.14605 | 1759 ft | 185 kts | 78° |
| 2026-05-04 20:08 | 51.15612 | -0.12584 | 2469 ft | 184 kts | 76° |
| 2026-05-04 20:09 | 51.15931 | -0.10437 | 2573 ft | 211 kts | 75° |
| 2026-05-04 20:09 | 51.16284 | -0.08061 | 2742 ft | 227 kts | 76° |
| 2026-05-04 20:09 | 51.16636 | -0.05592 | 2855 ft | 228 kts | 76° |
| 2026-05-04 20:09 | 51.16930 | -0.03139 | 2940 ft | 227 kts | 85° |
| 2026-05-04 20:10 | 51.16896 | -0.00535 | 3087 ft | 246 kts | 91° |
| 2026-05-04 20:10 | 51.16819 | 0.02229 | 3175 ft | 248 kts | 90° |
| 2026-05-04 20:10 | 51.16755 | 0.04984 | 3310 ft | 249 kts | 90° |
| 2026-05-04 20:10 | 51.16698 | 0.07760 | 3440 ft | 251 kts | 90° |
| 2026-05-04 20:11 | 51.16644 | 0.10548 | 3580 ft | 255 kts | 90° |
| 2026-05-04 20:11 | 51.16590 | 0.13332 | 3700 ft | 249 kts | 90° |
| 2026-05-04 20:11 | 51.16546 | 0.16103 | 3831 ft | 252 kts | 89° |
| 2026-05-04 20:11 | 51.16549 | 0.18924 | 3961 ft | 257 kts | 88° |
| 2026-05-04 20:12 | 51.16562 | 0.21753 | 4098 ft | 256 kts | 88° |
| 2026-05-04 20:12 | 51.16571 | 0.24577 | 4225 ft | 254 kts | 88° |
| 2026-05-04 20:12 | 51.16579 | 0.27413 | 4349 ft | 257 kts | 88° |
| 2026-05-04 20:12 | 51.16582 | 0.30242 | 4467 ft | 256 kts | 88° |
| 2026-05-04 20:13 | 51.16585 | 0.33096 | 4614 ft | 257 kts | 88° |
| 2026-05-04 20:13 | 51.16590 | 0.35939 | 4741 ft | 259 kts | 88° |
| 2026-05-04 20:13 | 51.16960 | 0.38710 | 4842 ft | 258 kts | 61° |
| 2026-05-04 20:13 | 51.18122 | 0.40826 | 4953 ft | 257 kts | 32° |
| 2026-05-04 20:14 | 51.19782 | 0.41947 | 5198 ft | 263 kts | 18° |
| 2026-05-04 20:14 | 51.21557 | 0.42800 | 5949 ft | 268 kts | 16° |
| 2026-05-04 20:14 | 51.23358 | 0.43643 | 6743 ft | 271 kts | 16° |
| 2026-05-04 20:14 | 51.25180 | 0.44493 | 7510 ft | 275 kts | 16° |
| 2026-05-04 20:15 | 51.27036 | 0.45352 | 8247 ft | 280 kts | 16° |
| 2026-05-04 20:15 | 51.28921 | 0.46218 | 9005 ft | 284 kts | 16° |
| 2026-05-04 20:15 | 51.30840 | 0.47092 | 9749 ft | 289 kts | 16° |
| 2026-05-04 20:15 | 51.32764 | 0.47960 | 10460 ft | 292 kts | 16° |
| 2026-05-04 20:16 | 51.34717 | 0.48843 | 11280 ft | 292 kts | 16° |
| 2026-05-04 20:16 | 51.36682 | 0.49732 | 12022 ft | 295 kts | 16° |
| 2026-05-04 20:16 | 51.38667 | 0.50625 | 12722 ft | 298 kts | 16° |
| 2026-05-04 20:16 | 51.40674 | 0.51527 | 12998 ft | 299 kts | 16° |
| 2026-05-04 20:17 | 51.42713 | 0.52438 | 13096 ft | 314 kts | 16° |
| 2026-05-04 20:17 | 51.44894 | 0.53413 | 13297 ft | 336 kts | 16° |
| 2026-05-04 20:17 | 51.47197 | 0.54445 | 13748 ft | 349 kts | 16° |
| 2026-05-04 20:17 | 51.49560 | 0.55502 | 14383 ft | 354 kts | 16° |
| 2026-05-04 20:18 | 51.51946 | 0.56571 | 15080 ft | 358 kts | 16° |
| 2026-05-04 20:18 | 51.54361 | 0.57656 | 15739 ft | 363 kts | 16° |
| 2026-05-04 20:18 | 51.56814 | 0.58762 | 16412 ft | 368 kts | 17° |
| 2026-05-04 20:18 | 51.59195 | 0.60325 | 17041 ft | 374 kts | 31° |
| 2026-05-04 20:19 | 51.61349 | 0.62736 | 17694 ft | 379 kts | 37° |
| 2026-05-04 20:19 | 51.63443 | 0.65340 | 18395 ft | 383 kts | 38° |
| 2026-05-04 20:19 | 51.65560 | 0.68006 | 18864 ft | 390 kts | 38° |
| 2026-05-04 20:19 | 51.67706 | 0.70679 | 19601 ft | 389 kts | 38° |
| 2026-05-04 20:20 | 51.69871 | 0.73335 | 20142 ft | 395 kts | 37° |
| 2026-05-04 20:20 | 51.72078 | 0.76010 | 20694 ft | 399 kts | 37° |
| 2026-05-04 20:20 | 51.74313 | 0.78696 | 21292 ft | 402 kts | 37° |
| 2026-05-04 20:20 | 51.76571 | 0.81397 | 21858 ft | 406 kts | 37° |
| 2026-05-04 20:21 | 51.78854 | 0.84124 | 22393 ft | 410 kts | 37° |
| 2026-05-04 20:21 | 51.81160 | 0.86878 | 22926 ft | 415 kts | 37° |
| 2026-05-04 20:21 | 51.85836 | 0.92471 | 23941 ft | 422 kts | 37° |
| 2026-05-04 20:22 | 51.88203 | 0.95308 | 24396 ft | 424 kts | 37° |
| 2026-05-04 20:22 | 51.89775 | 0.97195 | 24687 ft | 426 kts | 37° |
| 2026-05-04 20:22 | 51.92925 | 1.00981 | 25238 ft | 431 kts | 36° |
| 2026-05-04 20:22 | 51.95345 | 1.03894 | 25658 ft | 434 kts | 36° |
| 2026-05-04 20:23 | 51.97775 | 1.06825 | 26087 ft | 437 kts | 37° |
| 2026-05-04 20:23 | 52.00220 | 1.09776 | 26509 ft | 440 kts | 37° |
| 2026-05-04 20:23 | 52.02679 | 1.12749 | 26919 ft | 443 kts | 37° |
| 2026-05-04 20:23 | 52.05157 | 1.15749 | 27299 ft | 445 kts | 36° |
| 2026-05-04 20:24 | 52.07648 | 1.18770 | 27701 ft | 448 kts | 36° |
| 2026-05-04 20:24 | 52.10152 | 1.21810 | 28086 ft | 451 kts | 36° |
| 2026-05-04 20:24 | 52.12674 | 1.24876 | 28455 ft | 454 kts | 36° |
| 2026-05-04 20:24 | 52.15207 | 1.27961 | 28832 ft | 456 kts | 36° |
| 2026-05-04 20:25 | 52.17755 | 1.31069 | 29200 ft | 459 kts | 36° |
| 2026-05-04 20:25 | 52.19450 | 1.33138 | 29437 ft | 461 kts | 37° |
| 2026-05-04 20:25 | 52.22019 | 1.36280 | 29781 ft | 463 kts | 37° |
| 2026-05-04 20:25 | 52.24602 | 1.39443 | 30111 ft | 466 kts | 37° |
| 2026-05-04 20:26 | 52.27198 | 1.42626 | 30397 ft | 468 kts | 37° |
| 2026-05-04 20:26 | 52.29798 | 1.45819 | 30761 ft | 467 kts | 36° |
| 2026-05-04 20:26 | 52.32391 | 1.49008 | 31178 ft | 466 kts | 37° |
| 2026-05-04 20:26 | 52.34890 | 1.52382 | 31502 ft | 467 kts | 43° |
| 2026-05-04 20:27 | 52.37186 | 1.56137 | 31871 ft | 466 kts | 46° |
| 2026-05-04 20:27 | 52.39409 | 1.59987 | 32308 ft | 464 kts | 46° |
| 2026-05-04 20:27 | 52.41608 | 1.63837 | 32735 ft | 462 kts | 46° |
| 2026-05-04 20:27 | 52.43811 | 1.67665 | 33115 ft | 461 kts | 46° |
| 2026-05-04 20:28 | 52.46023 | 1.71461 | 33463 ft | 460 kts | 45° |
| 2026-05-04 20:28 | 52.48245 | 1.75244 | 33837 ft | 459 kts | 45° |
| 2026-05-04 20:28 | 52.50461 | 1.79006 | 34192 ft | 458 kts | 45° |
| 2026-05-04 20:28 | 52.52672 | 1.82759 | 34483 ft | 458 kts | 45° |
| 2026-05-04 20:29 | 52.54885 | 1.86527 | 34727 ft | 458 kts | 45° |
| 2026-05-04 20:29 | 52.57095 | 1.90296 | 34971 ft | 458 kts | 45° |
| 2026-05-04 20:29 | 52.58971 | 1.93498 | 35199 ft | 458 kts | 45° |
| 2026-05-04 20:29 | 52.60834 | 1.96676 | 35427 ft | 458 kts | 45° |
| 2026-05-04 20:30 | 52.62726 | 1.99907 | 35644 ft | 458 kts | 45° |
| 2026-05-04 20:30 | 52.64891 | 2.03606 | 35845 ft | 459 kts | 45° |
| 2026-05-04 20:30 | 52.67105 | 2.07397 | 36060 ft | 460 kts | 45° |
| 2026-05-04 20:30 | 52.68907 | 2.10486 | 36258 ft | 459 kts | 46° |
| 2026-05-04 20:31 | 52.70987 | 2.14059 | 36508 ft | 459 kts | 46° |
| 2026-05-04 20:31 | 52.73194 | 2.17856 | 36784 ft | 458 kts | 46° |
| 2026-05-04 20:31 | 52.75396 | 2.21649 | 37020 ft | 458 kts | 45° |
| 2026-05-04 20:31 | 52.77606 | 2.25462 | 37039 ft | 461 kts | 46° |
| 2026-05-04 20:32 | 52.82026 | 2.33108 | 37047 ft | 458 kts | 46° |
| 2026-05-04 20:32 | 52.86403 | 2.40704 | 37050 ft | 455 kts | 46° |
| 2026-05-04 20:33 | 52.90753 | 2.48279 | 37052 ft | 452 kts | 46° |
| 2026-05-04 20:33 | 52.95077 | 2.55827 | 37044 ft | 451 kts | 46° |
| 2026-05-04 20:34 | 52.99722 | 2.62850 | 37074 ft | 455 kts | 32° |
| 2026-05-04 20:34 | 53.05328 | 2.67776 | 37061 ft | 458 kts | 24° |
| 2026-05-04 20:35 | 53.11091 | 2.72372 | 37051 ft | 460 kts | 24° |
| 2026-05-04 20:35 | 53.16839 | 2.77082 | 37050 ft | 461 kts | 25° |
| 2026-05-04 20:36 | 53.22573 | 2.81861 | 37055 ft | 460 kts | 25° |
| 2026-05-04 20:36 | 53.28287 | 2.86636 | 37046 ft | 458 kts | 25° |
| 2026-05-04 20:37 | 53.34018 | 2.91232 | 37041 ft | 456 kts | 24° |
| 2026-05-04 20:37 | 53.39756 | 2.95677 | 37041 ft | 453 kts | 23° |
| 2026-05-04 20:38 | 53.45419 | 3.00085 | 37043 ft | 451 kts | 24° |
| 2026-05-04 20:38 | 53.51062 | 3.04518 | 37046 ft | 449 kts | 24° |
| 2026-05-04 20:39 | 53.56716 | 3.08986 | 37046 ft | 448 kts | 24° |
| 2026-05-04 20:39 | 53.62358 | 3.13461 | 37044 ft | 449 kts | 24° |
| 2026-05-04 20:40 | 53.67999 | 3.17946 | 37055 ft | 450 kts | 24° |
| 2026-05-04 20:40 | 53.73630 | 3.22437 | 37065 ft | 452 kts | 24° |
| 2026-05-04 20:41 | 53.79318 | 3.26986 | 37058 ft | 453 kts | 24° |
| 2026-05-04 20:41 | 53.85025 | 3.31565 | 37058 ft | 455 kts | 24° |
| 2026-05-04 20:42 | 53.90751 | 3.36174 | 37058 ft | 456 kts | 24° |
| 2026-05-04 20:42 | 53.96483 | 3.40801 | 37068 ft | 456 kts | 24° |
| 2026-05-04 20:43 | 54.02190 | 3.45422 | 37050 ft | 456 kts | 24° |
| 2026-05-04 20:43 | 54.07587 | 3.49806 | 37056 ft | 454 kts | 24° |
| 2026-05-04 20:44 | 54.13274 | 3.54438 | 37053 ft | 453 kts | 24° |
| 2026-05-04 20:44 | 54.18945 | 3.59071 | 37059 ft | 451 kts | 24° |
| 2026-05-04 20:45 | 54.24547 | 3.63663 | 37061 ft | 450 kts | 24° |
| 2026-05-04 20:45 | 54.29948 | 3.68102 | 37053 ft | 448 kts | 24° |
| 2026-05-04 20:46 | 54.35327 | 3.72536 | 37057 ft | 447 kts | 24° |
| 2026-05-04 20:46 | 54.40686 | 3.76968 | 37048 ft | 447 kts | 24° |
| 2026-05-04 20:47 | 54.46031 | 3.81399 | 37068 ft | 446 kts | 24° |
| 2026-05-04 20:47 | 54.51476 | 3.85927 | 37057 ft | 447 kts | 24° |
| 2026-05-04 20:48 | 54.56824 | 3.90388 | 37055 ft | 447 kts | 24° |
| 2026-05-04 20:48 | 54.62105 | 3.94807 | 37055 ft | 448 kts | 24° |
| 2026-05-04 20:49 | 54.67523 | 3.99352 | 37057 ft | 449 kts | 24° |
| 2026-05-04 20:49 | 54.72276 | 4.03352 | 37063 ft | 450 kts | 24° |
| 2026-05-04 20:50 | 54.77069 | 4.07396 | 37058 ft | 450 kts | 24° |
| 2026-05-04 20:50 | 54.82330 | 4.11845 | 37053 ft | 451 kts | 24° |
| 2026-05-04 20:51 | 54.87120 | 4.16848 | 37042 ft | 454 kts | 38° |
| 2026-05-04 20:51 | 54.91330 | 4.24268 | 37047 ft | 455 kts | 47° |
| 2026-05-04 20:52 | 54.95547 | 4.32452 | 37050 ft | 456 kts | 46° |
| 2026-05-04 20:52 | 54.99669 | 4.40398 | 37036 ft | 457 kts | 46° |
| 2026-05-04 20:53 | 55.03759 | 4.48218 | 37045 ft | 457 kts | 46° |
| 2026-05-04 20:53 | 55.07895 | 4.56120 | 37045 ft | 457 kts | 46° |
| 2026-05-04 20:54 | 55.11760 | 4.63529 | 37041 ft | 457 kts | 46° |
| 2026-05-04 20:54 | 55.15385 | 4.70503 | 37040 ft | 457 kts | 46° |
| 2026-05-04 20:55 | 55.19071 | 4.77621 | 37043 ft | 457 kts | 46° |
| 2026-05-04 20:55 | 55.22694 | 4.84628 | 37033 ft | 458 kts | 46° |
| 2026-05-04 20:56 | 55.26732 | 4.92462 | 37049 ft | 458 kts | 46° |
| 2026-05-04 20:56 | 55.31000 | 5.00490 | 37029 ft | 457 kts | 39° |
| 2026-05-04 20:57 | 55.36076 | 5.07108 | 37045 ft | 454 kts | 32° |
| 2026-05-04 20:57 | 55.41273 | 5.13440 | 37029 ft | 454 kts | 32° |
| 2026-05-04 20:58 | 55.46455 | 5.19833 | 37033 ft | 455 kts | 33° |
| 2026-05-04 20:58 | 55.51622 | 5.26305 | 37038 ft | 456 kts | 33° |
| 2026-05-04 20:59 | 55.56788 | 5.32825 | 37027 ft | 456 kts | 33° |
| 2026-05-04 20:59 | 55.61915 | 5.39323 | 37027 ft | 457 kts | 33° |
| 2026-05-04 21:00 | 55.67111 | 5.45929 | 37047 ft | 457 kts | 33° |
| 2026-05-04 21:00 | 55.72278 | 5.52516 | 37042 ft | 458 kts | 33° |
| 2026-05-04 21:01 | 55.77413 | 5.59085 | 37036 ft | 458 kts | 33° |
| 2026-05-04 21:01 | 55.82581 | 5.65718 | 37024 ft | 459 kts | 33° |
| 2026-05-04 21:02 | 55.87748 | 5.72371 | 37022 ft | 459 kts | 33° |
| 2026-05-04 21:02 | 55.92915 | 5.79047 | 37022 ft | 459 kts | 33° |
| 2026-05-04 21:03 | 55.98077 | 5.85739 | 37020 ft | 459 kts | 33° |
| 2026-05-04 21:03 | 56.03226 | 5.92438 | 37017 ft | 458 kts | 33° |
| 2026-05-04 21:04 | 56.08379 | 5.99163 | 37018 ft | 458 kts | 33° |
| 2026-05-04 21:04 | 56.13316 | 6.05627 | 37019 ft | 458 kts | 33° |
| 2026-05-04 21:05 | 56.18398 | 6.12306 | 37023 ft | 458 kts | 33° |
| 2026-05-04 21:05 | 56.23543 | 6.19088 | 37012 ft | 458 kts | 33° |
| 2026-05-04 21:06 | 56.28683 | 6.25887 | 37012 ft | 458 kts | 33° |
| 2026-05-04 21:06 | 56.33817 | 6.32702 | 37011 ft | 458 kts | 33° |
| 2026-05-04 21:07 | 56.38938 | 6.39522 | 37009 ft | 458 kts | 33° |
| 2026-05-04 21:07 | 56.44066 | 6.46375 | 37009 ft | 459 kts | 33° |
| 2026-05-04 21:08 | 56.49204 | 6.53266 | 37005 ft | 459 kts | 33° |
| 2026-05-04 21:08 | 56.54336 | 6.60171 | 37003 ft | 460 kts | 33° |
| 2026-05-04 21:09 | 56.59429 | 6.67049 | 36995 ft | 460 kts | 33° |
| 2026-05-04 21:09 | 56.64566 | 6.74010 | 36996 ft | 461 kts | 33° |
| 2026-05-04 21:10 | 56.69666 | 6.80944 | 36987 ft | 462 kts | 33° |
| 2026-05-04 21:10 | 56.74789 | 6.87934 | 36987 ft | 462 kts | 33° |
| 2026-05-04 21:11 | 56.79928 | 6.94972 | 36997 ft | 463 kts | 33° |
| 2026-05-04 21:11 | 56.85035 | 7.01989 | 36984 ft | 463 kts | 33° |
| 2026-05-04 21:12 | 56.90163 | 7.09061 | 36973 ft | 464 kts | 33° |
| 2026-05-04 21:12 | 56.95303 | 7.16173 | 36984 ft | 464 kts | 33° |
| 2026-05-04 21:13 | 57.00391 | 7.23457 | 36972 ft | 468 kts | 39° |
| 2026-05-04 21:13 | 57.04790 | 7.32329 | 36978 ft | 471 kts | 46° |
| 2026-05-04 21:14 | 57.08306 | 7.39904 | 36969 ft | 471 kts | 46° |
| 2026-05-04 21:14 | 57.12577 | 7.49074 | 36966 ft | 471 kts | 46° |
| 2026-05-04 21:15 | 57.16857 | 7.58184 | 36984 ft | 472 kts | 45° |
| 2026-05-04 21:15 | 57.21096 | 7.67190 | 36977 ft | 473 kts | 45° |
| 2026-05-04 21:16 | 57.25408 | 7.76377 | 36955 ft | 473 kts | 45° |
| 2026-05-04 21:16 | 57.29711 | 7.85585 | 36957 ft | 474 kts | 45° |
| 2026-05-04 21:17 | 57.34012 | 7.94829 | 36956 ft | 474 kts | 46° |
| 2026-05-04 21:17 | 57.38271 | 8.04020 | 36947 ft | 474 kts | 46° |
| 2026-05-04 21:18 | 57.42569 | 8.13331 | 36949 ft | 476 kts | 45° |
| 2026-05-04 21:18 | 57.46867 | 8.22679 | 36944 ft | 476 kts | 46° |
| 2026-05-04 21:19 | 57.51168 | 8.32072 | 36941 ft | 477 kts | 46° |
| 2026-05-04 21:19 | 57.55466 | 8.41494 | 36929 ft | 478 kts | 46° |
| 2026-05-04 21:20 | 57.59761 | 8.50948 | 36925 ft | 478 kts | 46° |
| 2026-05-04 21:20 | 57.64052 | 8.60430 | 36969 ft | 478 kts | 46° |
| 2026-05-04 21:21 | 57.68348 | 8.69962 | 36930 ft | 480 kts | 46° |
| 2026-05-04 21:21 | 57.72647 | 8.79538 | 36919 ft | 481 kts | 46° |
| 2026-05-04 21:22 | 57.76942 | 8.89148 | 36908 ft | 482 kts | 46° |
| 2026-05-04 21:22 | 57.81238 | 8.98796 | 36907 ft | 482 kts | 46° |
| 2026-05-04 21:23 | 57.85486 | 9.08378 | 36902 ft | 482 kts | 46° |
| 2026-05-04 21:23 | 57.89778 | 9.18096 | 36883 ft | 484 kts | 46° |
| 2026-05-04 21:24 | 57.94065 | 9.27844 | 36887 ft | 484 kts | 46° |
| 2026-05-04 21:24 | 57.98350 | 9.37627 | 36888 ft | 484 kts | 46° |
| 2026-05-04 21:25 | 58.02629 | 9.47440 | 36885 ft | 485 kts | 46° |
| 2026-05-04 21:25 | 58.06905 | 9.57286 | 36871 ft | 485 kts | 47° |
| 2026-05-04 21:26 | 58.11176 | 9.67159 | 36915 ft | 485 kts | 47° |
| 2026-05-04 21:26 | 58.15418 | 9.77003 | 36873 ft | 487 kts | 47° |
| 2026-05-04 21:27 | 58.19349 | 9.87501 | 36874 ft | 490 kts | 54° |
| 2026-05-04 21:27 | 58.22971 | 9.98466 | 36854 ft | 490 kts | 55° |
| 2026-05-04 21:28 | 58.26570 | 10.09331 | 36855 ft | 490 kts | 54° |
| 2026-05-04 21:28 | 58.30240 | 10.20241 | 36844 ft | 490 kts | 54° |
| 2026-05-04 21:29 | 58.33911 | 10.31144 | 36844 ft | 489 kts | 54° |
| 2026-05-04 21:29 | 58.37571 | 10.42079 | 36844 ft | 489 kts | 54° |
| 2026-05-04 21:30 | 58.41216 | 10.53023 | 36835 ft | 489 kts | 54° |
| 2026-05-04 21:30 | 58.44758 | 10.64111 | 36824 ft | 490 kts | 57° |
| 2026-05-04 21:31 | 58.49702 | 10.81194 | 36837 ft | 490 kts | 58° |
| 2026-05-04 21:32 | 58.53001 | 10.92580 | 36837 ft | 489 kts | 58° |
| 2026-05-04 21:32 | 58.56277 | 11.03817 | 36854 ft | 489 kts | 58° |
| 2026-05-04 21:33 | 58.59588 | 11.15209 | 36830 ft | 489 kts | 58° |
| 2026-05-04 21:33 | 58.62887 | 11.26626 | 36825 ft | 489 kts | 58° |
| 2026-05-04 21:34 | 58.66175 | 11.38068 | 36810 ft | 490 kts | 58° |
| 2026-05-04 21:34 | 58.69456 | 11.49533 | 36815 ft | 490 kts | 58° |
| 2026-05-04 21:35 | 58.72757 | 11.60991 | 36818 ft | 489 kts | 58° |
| 2026-05-04 21:35 | 58.76058 | 11.72444 | 36800 ft | 490 kts | 58° |
| 2026-05-04 21:36 | 58.79348 | 11.83938 | 36815 ft | 490 kts | 58° |
| 2026-05-04 21:36 | 58.82493 | 11.95610 | 36798 ft | 492 kts | 63° |
| 2026-05-04 21:37 | 58.85156 | 12.07528 | 36795 ft | 492 kts | 65° |
| 2026-05-04 21:37 | 58.87795 | 12.19838 | 36787 ft | 492 kts | 65° |
| 2026-05-04 21:38 | 58.90447 | 12.32049 | 36785 ft | 492 kts | 65° |
| 2026-05-04 21:38 | 58.93121 | 12.44244 | 36781 ft | 493 kts | 65° |
| 2026-05-04 21:39 | 58.95778 | 12.56375 | 36783 ft | 492 kts | 65° |
| 2026-05-04 21:39 | 58.98440 | 12.68605 | 36828 ft | 492 kts | 65° |
| 2026-05-04 21:40 | 59.01091 | 12.80866 | 36783 ft | 494 kts | 65° |
| 2026-05-04 21:40 | 59.03733 | 12.93168 | 36772 ft | 494 kts | 65° |
| 2026-05-04 21:41 | 59.06340 | 13.05373 | 36760 ft | 494 kts | 65° |
| 2026-05-04 21:41 | 59.08960 | 13.17715 | 36759 ft | 494 kts | 65° |
| 2026-05-04 21:42 | 59.11578 | 13.30118 | 36286 ft | 499 kts | 65° |
| 2026-05-04 21:42 | 59.12889 | 13.36362 | 35774 ft | 497 kts | 65° |
| 2026-05-04 21:42 | 59.14189 | 13.42573 | 35328 ft | 494 kts | 65° |
| 2026-05-04 21:42 | 59.15478 | 13.48752 | 34924 ft | 490 kts | 65° |
| 2026-05-04 21:43 | 59.16599 | 13.54138 | 34559 ft | 488 kts | 65° |
| 2026-05-04 21:43 | 59.17801 | 13.59933 | 34199 ft | 485 kts | 65° |
| 2026-05-04 21:43 | 59.19062 | 13.66025 | 33737 ft | 484 kts | 65° |
| 2026-05-04 21:43 | 59.20319 | 13.72114 | 33250 ft | 483 kts | 65° |
| 2026-05-04 21:44 | 59.21566 | 13.78170 | 32807 ft | 479 kts | 66° |
| 2026-05-04 21:44 | 59.22802 | 13.84196 | 32397 ft | 476 kts | 66° |
| 2026-05-04 21:44 | 59.24027 | 13.90183 | 31981 ft | 473 kts | 66° |
| 2026-05-04 21:44 | 59.25242 | 13.96140 | 31579 ft | 470 kts | 66° |
| 2026-05-04 21:45 | 59.26421 | 14.01940 | 31194 ft | 468 kts | 66° |
| 2026-05-04 21:45 | 59.27617 | 14.07836 | 30798 ft | 466 kts | 66° |
| 2026-05-04 21:45 | 59.28805 | 14.13714 | 30409 ft | 464 kts | 66° |
| 2026-05-04 21:45 | 59.29984 | 14.19561 | 30002 ft | 462 kts | 66° |
| 2026-05-04 21:46 | 59.31160 | 14.25411 | 29565 ft | 461 kts | 66° |
| 2026-05-04 21:46 | 59.32327 | 14.31231 | 29128 ft | 458 kts | 66° |
| 2026-05-04 21:46 | 59.33482 | 14.37012 | 28686 ft | 453 kts | 66° |
| 2026-05-04 21:46 | 59.34623 | 14.42744 | 28280 ft | 450 kts | 66° |
| 2026-05-04 21:47 | 59.35755 | 14.48442 | 27872 ft | 447 kts | 66° |
| 2026-05-04 21:47 | 59.36877 | 14.54104 | 27522 ft | 444 kts | 66° |
| 2026-05-04 21:47 | 59.37991 | 14.59745 | 27065 ft | 443 kts | 66° |
| 2026-05-04 21:47 | 59.39100 | 14.65370 | 26665 ft | 441 kts | 66° |
| 2026-05-04 21:48 | 59.40200 | 14.70972 | 26258 ft | 439 kts | 66° |
| 2026-05-04 21:48 | 59.41297 | 14.76567 | 25781 ft | 440 kts | 66° |
| 2026-05-04 21:48 | 59.42393 | 14.82176 | 25315 ft | 440 kts | 66° |
| 2026-05-04 21:48 | 59.43485 | 14.87781 | 24878 ft | 439 kts | 66° |
| 2026-05-04 21:49 | 59.44569 | 14.93364 | 24482 ft | 437 kts | 66° |
| 2026-05-04 21:49 | 59.45649 | 14.98940 | 24066 ft | 436 kts | 66° |
| 2026-05-04 21:49 | 59.46703 | 15.04398 | 23674 ft | 434 kts | 66° |
| 2026-05-04 21:49 | 59.47770 | 15.09941 | 23239 ft | 433 kts | 66° |
| 2026-05-04 21:50 | 59.48831 | 15.15468 | 22805 ft | 431 kts | 66° |
| 2026-05-04 21:50 | 59.49884 | 15.20968 | 22380 ft | 428 kts | 66° |
| 2026-05-04 21:50 | 59.50927 | 15.26429 | 21971 ft | 425 kts | 66° |
| 2026-05-04 21:50 | 59.51947 | 15.31790 | 21572 ft | 422 kts | 66° |
| 2026-05-04 21:51 | 59.52974 | 15.37195 | 21174 ft | 420 kts | 66° |
| 2026-05-04 21:51 | 59.53990 | 15.42562 | 20785 ft | 417 kts | 66° |
| 2026-05-04 21:51 | 59.55000 | 15.47910 | 20448 ft | 415 kts | 66° |
| 2026-05-04 21:51 | 59.56007 | 15.53251 | 19992 ft | 416 kts | 66° |
| 2026-05-04 21:52 | 59.57012 | 15.58599 | 19590 ft | 414 kts | 66° |
| 2026-05-04 21:52 | 59.57906 | 15.63977 | 19359 ft | 410 kts | 75° |
| 2026-05-04 21:52 | 59.58467 | 15.69430 | 19185 ft | 402 kts | 78° |
| 2026-05-04 21:52 | 59.58986 | 15.74825 | 18848 ft | 399 kts | 73° |
| 2026-05-04 21:53 | 59.59711 | 15.80108 | 18469 ft | 399 kts | 72° |
| 2026-05-04 21:53 | 59.60453 | 15.85376 | 18117 ft | 397 kts | 71° |
| 2026-05-04 21:53 | 59.61188 | 15.90597 | 17803 ft | 391 kts | 72° |
| 2026-05-04 21:53 | 59.61913 | 15.95743 | 17356 ft | 386 kts | 72° |
| 2026-05-04 21:54 | 59.62614 | 16.00705 | 16866 ft | 384 kts | 72° |
| 2026-05-04 21:54 | 59.63333 | 16.05766 | 16406 ft | 380 kts | 72° |
| 2026-05-04 21:54 | 59.64048 | 16.10759 | 15995 ft | 376 kts | 72° |
| 2026-05-04 21:54 | 59.64763 | 16.15723 | 15628 ft | 374 kts | 72° |
| 2026-05-04 21:55 | 59.65479 | 16.20656 | 15182 ft | 375 kts | 72° |
| 2026-05-04 21:55 | 59.66217 | 16.25677 | 14492 ft | 384 kts | 72° |
| 2026-05-04 21:55 | 59.66962 | 16.30685 | 14074 ft | 384 kts | 72° |
| 2026-05-04 21:55 | 59.67729 | 16.35790 | 13732 ft | 380 kts | 72° |
| 2026-05-04 21:56 | 59.68472 | 16.40707 | 13398 ft | 376 kts | 72° |
| 2026-05-04 21:56 | 59.69222 | 16.45637 | 12983 ft | 373 kts | 72° |
| 2026-05-04 21:56 | 59.69980 | 16.50585 | 12358 ft | 377 kts | 72° |
| 2026-05-04 21:56 | 59.70745 | 16.55546 | 11895 ft | 376 kts | 72° |
| 2026-05-04 21:57 | 59.71517 | 16.60482 | 11431 ft | 373 kts | 72° |
| 2026-05-04 21:57 | 59.72290 | 16.65357 | 11067 ft | 368 kts | 72° |
| 2026-05-04 21:57 | 59.73058 | 16.70152 | 10721 ft | 363 kts | 72° |
| 2026-05-04 21:57 | 59.73822 | 16.74887 | 10393 ft | 358 kts | 72° |
| 2026-05-04 21:58 | 59.74578 | 16.79549 | 10055 ft | 354 kts | 72° |
| 2026-05-04 21:58 | 59.75333 | 16.84173 | 9794 ft | 348 kts | 72° |
| 2026-05-04 21:58 | 59.76062 | 16.88615 | 9644 ft | 331 kts | 72° |
| 2026-05-04 21:58 | 59.76765 | 16.92887 | 9351 ft | 320 kts | 72° |
| 2026-05-04 21:59 | 59.77443 | 16.96998 | 9070 ft | 308 kts | 72° |
| 2026-05-04 21:59 | 59.78082 | 17.00883 | 8817 ft | 299 kts | 72° |
| 2026-05-04 21:59 | 59.78722 | 17.04792 | 8579 ft | 296 kts | 72° |
| 2026-05-04 21:59 | 59.79352 | 17.08660 | 8313 ft | 293 kts | 72° |
| 2026-05-04 22:00 | 59.79957 | 17.12376 | 8084 ft | 285 kts | 72° |
| 2026-05-04 22:00 | 59.80557 | 17.16072 | 7859 ft | 277 kts | 72° |
| 2026-05-04 22:00 | 59.81139 | 17.19676 | 7641 ft | 270 kts | 72° |
| 2026-05-04 22:00 | 59.81700 | 17.23172 | 7437 ft | 262 kts | 72° |
| 2026-05-04 22:01 | 59.82242 | 17.26569 | 7252 ft | 254 kts | 72° |
| 2026-05-04 22:01 | 59.82768 | 17.29885 | 7075 ft | 250 kts | 72° |
| 2026-05-04 22:01 | 59.83113 | 17.32052 | 6968 ft | 249 kts | 72° |
| 2026-05-04 22:01 | 59.83635 | 17.35345 | 6789 ft | 252 kts | 72° |
| 2026-05-04 22:02 | 59.84167 | 17.38687 | 6651 ft | 254 kts | 72° |
| 2026-05-04 22:02 | 59.84695 | 17.42014 | 6512 ft | 250 kts | 72° |
| 2026-05-04 22:02 | 59.85211 | 17.45275 | 6416 ft | 244 kts | 72° |
| 2026-05-04 22:02 | 59.85720 | 17.48490 | 6350 ft | 243 kts | 72° |
| 2026-05-04 22:03 | 59.86224 | 17.51670 | 6293 ft | 239 kts | 72° |
| 2026-05-04 22:03 | 59.86726 | 17.54843 | 6260 ft | 244 kts | 72° |
| 2026-05-04 22:03 | 59.87224 | 17.58163 | 5959 ft | 253 kts | 79° |
| 2026-05-04 22:03 | 59.87182 | 17.61596 | 5693 ft | 245 kts | 104° |
| 2026-05-04 22:04 | 59.86803 | 17.64870 | 5435 ft | 241 kts | 107° |
| 2026-05-04 22:04 | 59.86402 | 17.68082 | 5171 ft | 238 kts | 107° |
| 2026-05-04 22:04 | 59.85997 | 17.71277 | 4912 ft | 238 kts | 107° |
| 2026-05-04 22:04 | 59.85592 | 17.74447 | 4695 ft | 234 kts | 107° |
| 2026-05-04 22:05 | 59.85196 | 17.77534 | 4445 ft | 228 kts | 107° |
| 2026-05-04 22:05 | 59.84804 | 17.80566 | 4196 ft | 224 kts | 107° |
| 2026-05-04 22:05 | 59.84420 | 17.83548 | 3911 ft | 222 kts | 108° |
| 2026-05-04 22:05 | 59.84042 | 17.86518 | 3615 ft | 220 kts | 108° |
| 2026-05-04 22:06 | 59.83672 | 17.89474 | 3298 ft | 220 kts | 108° |
| 2026-05-04 22:06 | 59.83310 | 17.92378 | 2999 ft | 220 kts | 107° |
| 2026-05-04 22:06 | 59.82869 | 17.95269 | 2671 ft | 216 kts | 123° |
| 2026-05-04 22:06 | 59.81858 | 17.97078 | 2486 ft | 180 kts | 176° |
| 2026-05-04 22:07 | 59.80677 | 17.97072 | 2478 ft | 171 kts | 194° |
| 2026-05-04 22:07 | 59.79492 | 17.96951 | 2481 ft | 168 kts | 195° |
| 2026-05-04 22:07 | 59.78357 | 17.96624 | 2466 ft | 163 kts | 200° |
| 2026-05-04 22:07 | 59.77243 | 17.96220 | 2307 ft | 164 kts | 201° |
| 2026-05-04 22:08 | 59.76151 | 17.95823 | 2109 ft | 156 kts | 203° |
| 2026-05-04 22:08 | 59.75152 | 17.95445 | 1918 ft | 139 kts | 202° |
| 2026-05-04 22:08 | 59.74252 | 17.95140 | 1743 ft | 125 kts | 204° |
| 2026-05-04 22:08 | 59.73409 | 17.94833 | 1569 ft | 123 kts | 205° |
| 2026-05-04 22:09 | 59.72556 | 17.94523 | 1409 ft | 127 kts | 204° |
| 2026-05-04 22:09 | 59.71682 | 17.94206 | 1241 ft | 129 kts | 203° |
| 2026-05-04 22:09 | 59.70802 | 17.93884 | 1077 ft | 130 kts | 202° |
| 2026-05-04 22:09 | 59.69901 | 17.93558 | 871 ft | 131 kts | 197° |
| 2026-05-04 22:10 | 59.69002 | 17.93232 | 665 ft | 133 kts | 195° |
| 2026-05-04 22:10 | 59.68096 | 17.92914 | 503 ft | 132 kts | 193° |
| 2026-05-04 22:10 | 59.67186 | 17.92583 | 304 ft | 132 kts | 195° |
| 2026-05-04 22:10 | 59.66298 | 17.92257 | 133 ft | 126 kts | 194° |
| 2026-05-04 22:11 | 59.65528 | 17.91971 | 106 ft | 92 kts | 190° |
| 2026-05-04 22:11 | 59.65107 | 17.91819 | 103 ft | 39 kts | 190° |
| 2026-05-04 22:11 | 59.64872 | 17.91738 | 104 ft | 27 kts | 189° |
| 2026-05-04 22:11 | 59.64723 | 17.91706 | 107 ft | 20 kts | 177° |
| 2026-05-04 22:12 | 59.64587 | 17.91756 | 106 ft | 20 kts | 164° |
| 2026-05-04 22:12 | 59.64489 | 17.91850 | 108 ft | 11 kts | 121° |
| 2026-05-04 22:12 | 59.64500 | 17.91945 | 108 ft | 8 kts | 42° |
| 2026-05-04 22:12 | 59.64565 | 17.91988 | 109 ft | 12 kts | 12° |
| 2026-05-04 22:13 | 59.64674 | 17.92027 | 107 ft | 19 kts | 10° |
| 2026-05-04 22:13 | 59.64813 | 17.92075 | 106 ft | 21 kts | 11° |
| 2026-05-04 22:13 | 59.64968 | 17.92133 | 106 ft | 25 kts | 11° |
| 2026-05-04 22:13 | 59.65147 | 17.92197 | 104 ft | 23 kts | 10° |
| 2026-05-04 22:14 | 59.65274 | 17.92245 | 105 ft | 13 kts | 14° |
| 2026-05-04 22:14 | 59.65300 | 17.92353 | 108 ft | 8 kts | 106° |
| 2026-05-04 22:14 | 59.65283 | 17.92456 | 109 ft | 8 kts | 108° |
| 2026-05-04 22:14 | 59.65263 | 17.92568 | 111 ft | 11 kts | 109° |
| 2026-05-04 22:15 | 59.65239 | 17.92700 | 110 ft | 0 kts | 108° |
| 2026-05-04 22:15 | 59.65238 | 17.92704 | 111 ft | 2 kts | 107° |
| 2026-05-04 22:15 | 59.65224 | 17.92792 | 109 ft | 6 kts | 109° |
| 2026-05-04 22:15 | 59.65180 | 17.92811 | 111 ft | 7 kts | 188° |
| 2026-05-04 22:16 | 59.65142 | 17.92798 | 111 ft | 2 kts | 191° |
| 2026-05-04 22:16 | 59.65139 | 17.92797 | 111 ft | 0 kts | 191° |